Погода Пловизнына неделю

Люблинское воеводство, Польша

15 - 21 июля
  • 15июля
    Сегодня
    +19°
    +28°
    Ясно и безоблачно
    ВремяПогодаТемператураВлажностьДавлениеВетер, м/сВероятность осадков
    02:00Ясно и безоблачно+19°C90 %742 мм0.7 м/с2 %
    05:00Облачно с прояснениями+18°C96 %743 мм0.8 м/с2 %
    08:00Облачно с прояснениями+21°C83 %743 мм1.7 м/с2 %
    11:00Практически безоблачно+24°C62 %743 мм1.8 м/с2 %
    14:00Ясно и безоблачно+27°C55 %743 мм1.7 м/с2 %
    17:00Практически безоблачно+28°C51 %743 мм2.2 м/с2 %
    20:00Ясно и безоблачно+25°C63 %743 мм1.2 м/с1 %
    23:00Ясно и безоблачно+22°C76 %742 мм0.6 м/с2 %
  • 16июля
    Вторник
    +19°
    +31°
    Практически безоблачно
    ВремяПогодаТемператураВлажностьДавлениеВетер, м/сВероятность осадков
    02:00Ясно и безоблачно+20°C83 %742 мм0.7 м/с2 %
    05:00Ясно и безоблачно+19°C87 %742 мм1.2 м/с2 %
    08:00Ясно и безоблачно+24°C74 %742 мм2.5 м/с2 %
    11:00Практически безоблачно+28°C66 %742 мм2.9 м/с5 %
    14:00Практически безоблачно+31°C59 %741 мм3.0 м/с13 %
    17:00Облачно с прояснениями+29°C47 %740 мм3.3 м/с41 %
    20:00Облачно с прояснениями+26°C70 %740 мм2.2 м/с23 %
    23:00Небольшая облачность, ливень+23°C92 %741 мм1.4 м/с49 %
  • 17июля
    Среда
    +17°
    +28°
    Ясно и безоблачно
    ВремяПогодаТемператураВлажностьДавлениеВетер, м/сВероятность осадков
    02:00Ясно и безоблачно+21°C95 %742 мм1.6 м/с21 %
    05:00Ясно и безоблачно+20°C96 %743 мм2.6 м/с9 %
    08:00Облачно с прояснениями+22°C86 %744 мм3.1 м/с4 %
    11:00Практически безоблачно+25°C52 %745 мм3.0 м/с4 %
    14:00Ясно и безоблачно+28°C44 %745 мм2.8 м/с6 %
    17:00Практически безоблачно+28°C46 %745 мм3.1 м/с3 %
    20:00Практически безоблачно+25°C60 %746 мм1.9 м/с2 %
    23:00Практически безоблачно+21°C66 %746 мм1.1 м/с4 %
  • 18июля
    Четверг
    +15°
    +27°
    Практически безоблачно
    ВремяПогодаТемператураВлажностьДавлениеВетер, м/сВероятность осадков
    02:00Ясно и безоблачно+19°C69 %747 мм1.0 м/с11 %
    05:00Практически безоблачно+17°C78 %747 мм1.0 м/с14 %
    08:00Ясно и безоблачно+22°C67 %748 мм2.0 м/с13 %
    11:00Ясно и безоблачно+25°C49 %748 мм2.4 м/с6 %
    14:00Практически безоблачно+27°C45 %748 мм2.2 м/с4 %
    17:00Практически безоблачно+26°C44 %747 мм2.8 м/с3 %
    20:00Ясно и безоблачно+24°C69 %747 мм2.0 м/с2 %
    23:00Практически безоблачно+20°C63 %747 мм1.1 м/с2 %
  • 19июля
    Пятница
    +15°
    +28°
    Практически безоблачно
    ВремяПогодаТемператураВлажностьДавлениеВетер, м/сВероятность осадков
    02:00Облачно с прояснениями+18°C73 %747 мм0.5 м/с2 %
    05:00Небольшая облачность+16°C81 %746 мм0.7 м/с2 %
    08:00Небольшая облачность+21°C68 %747 мм1.5 м/с2 %
    11:00Практически безоблачно+25°C48 %747 мм2.3 м/с6 %
    14:00Практически безоблачно+27°C41 %746 мм2.8 м/с13 %
    17:00Практически безоблачно+26°C44 %745 мм3.2 м/с12 %
    20:00Ясно и безоблачно+23°C61 %744 мм2.0 м/с2 %
    23:00Ясно и безоблачно+20°C74 %744 мм1.0 м/с2 %
Мы используем cookies
Соглашаюсь